Time;durP1;ratioP1;P1;durP2;ratioP2;P2;SDS_P1;SDS_P2;PMS_P1;PMS_P2;Temp;Humidity;BMP_temperature;BMP_pressure;BME280_temperature;BME280_humidity;BME280_pressure;Samples;Min_cycle;Max_cycle;Signal;HPM_P1;HPM_P2
2024/01/07 00:02:23;;;;;;;13.65;8.30;;;;;;;-146.27;80.24;44559.41;5064283;28;20047;-72
2024/01/07 00:04:48;;;;;;;12.85;7.72;;;;;;;-146.27;80.84;44577.31;5069061;28;20025;-71
2024/01/07 00:07:13;;;;;;;13.48;7.70;;;;;;;-146.27;80.46;44561.38;5067883;28;20101;-71
2024/01/07 00:09:39;;;;;;;10.68;7.50;;;;;;;-146.27;80.45;44573.31;5071597;28;20020;-71
2024/01/07 00:12:05;;;;;;;12.05;7.60;;;;;;;-146.27;80.76;44565.38;5068611;28;20032;-71
2024/01/07 00:14:30;;;;;;;12.52;7.55;;;;;;;-146.27;80.21;44591.22;5063952;28;20024;-73
2024/01/07 00:16:55;;;;;;;12.10;7.45;;;;;;;-146.27;80.21;44619.09;5070338;28;20100;-72
2024/01/07 00:19:21;;;;;;;11.98;7.90;;;;;;;-146.27;80.78;44565.38;5069465;28;20099;-71
2024/01/07 00:21:46;;;;;;;12.88;7.80;;;;;;;-146.27;81.03;44573.31;5068458;28;20084;-72
2024/01/07 00:24:12;;;;;;;12.93;7.97;;;;;;;-146.27;81.57;44567.34;5069703;28;20501;-71
2024/01/07 00:26:38;;;;;;;12.02;8.18;;;;;;;-146.27;81.37;44503.69;5066188;28;20531;-72
2024/01/07 00:29:03;;;;;;;15.07;8.35;;;;;;;-146.27;81.76;44509.66;5057179;28;20024;-71
2024/01/07 00:31:29;;;;;;;12.38;7.53;;;;;;;-146.27;81.98;44491.75;5068608;28;20027;-72
2024/01/07 00:33:54;;;;;;;13.18;8.18;;;;;;;-146.27;82.27;44400.22;5066551;28;20882;-71
2024/01/07 00:36:20;;;;;;;14.77;8.48;;;;;;;-146.27;82.83;44350.47;5055469;28;20054;-71
2024/01/07 00:38:45;;;;;;;11.80;7.72;;;;;;;-146.27;82.57;44350.47;5060445;28;20514;-72
2024/01/07 00:41:11;;;;;;;12.68;7.70;;;;;;;-146.27;82.28;44360.41;5064756;28;20108;-71
2024/01/07 00:43:36;;;;;;;11.45;7.70;;;;;;;-146.27;82.47;44334.56;5066531;28;20024;-71
2024/01/07 00:46:02;;;;;;;11.63;7.95;;;;;;;-146.27;82.32;44350.47;5066374;28;20418;-71
2024/01/07 00:48:27;;;;;;;14.75;8.32;;;;;;;-146.27;82.36;44370.38;5064380;28;20043;-71
2024/01/07 00:50:52;;;;;;;11.10;7.65;;;;;;;-146.27;82.80;44298.75;5061546;28;20040;-71
2024/01/07 00:53:17;;;;;;;13.00;8.38;;;;;;;-146.27;82.75;44270.88;5066412;28;20029;-71
2024/01/07 00:55:43;;;;;;;13.82;8.50;;;;;;;-146.27;82.80;44282.81;5065153;28;20021;-71
2024/01/07 00:58:08;;;;;;;12.65;8.05;;;;;;;-146.27;83.23;44229.09;5066408;28;20029;-71
2024/01/07 01:00:34;;;;;;;13.25;8.35;;;;;;;-146.27;82.70;44262.91;5064438;28;20037;-71
2024/01/07 01:02:59;;;;;;;13.30;8.25;;;;;;;-146.27;83.36;44243.03;5066752;28;20024;-71
2024/01/07 01:05:25;;;;;;;13.63;8.07;;;;;;;-146.27;83.05;44258.94;5057171;28;20032;-71
2024/01/07 01:07:51;;;;;;;14.35;8.57;;;;;;;-146.27;82.60;44243.03;5064318;28;20036;-72
2024/01/07 01:10:17;;;;;;;14.10;9.10;;;;;;;-146.27;82.30;44264.91;5064158;28;20025;-71
2024/01/07 01:12:43;;;;;;;12.80;8.75;;;;;;;-146.27;82.60;44254.97;5067006;28;20111;-71
2024/01/07 01:15:09;;;;;;;14.15;9.20;;;;;;;-146.27;82.39;44227.09;5065100;28;20031;-71
2024/01/07 01:17:34;;;;;;;13.63;8.05;;;;;;;-146.27;82.11;44286.78;5062387;28;20028;-70
2024/01/07 01:20:00;;;;;;;13.65;8.52;;;;;;;-146.27;82.42;44304.72;5065406;28;20017;-70
2024/01/07 01:22:25;;;;;;;14.23;8.50;;;;;;;-146.27;82.28;44294.75;5071311;28;20050;-70
2024/01/07 01:24:52;;;;;;;12.18;8.60;;;;;;;-146.27;81.86;44310.69;5066779;28;20551;-72
2024/01/07 01:27:18;;;;;;;13.98;8.45;;;;;;;-146.27;81.86;44352.47;5058835;28;20527;-72
2024/01/07 01:29:43;;;;;;;13.95;8.20;;;;;;;-146.27;81.50;44380.31;5068434;28;20090;-72
2024/01/07 01:32:09;;;;;;;14.95;8.63;;;;;;;-146.27;82.00;44326.59;5063331;28;20407;-72
2024/01/07 01:34:36;;;;;;;14.25;8.25;;;;;;;-146.27;81.49;44390.25;5067734;28;20344;-71
2024/01/07 01:37:01;;;;;;;12.68;8.35;;;;;;;-146.27;81.42;44370.38;5063808;28;20028;-70
2024/01/07 01:39:28;;;;;;;12.77;8.10;;;;;;;-146.27;81.47;44370.38;5065795;28;20043;-71
2024/01/07 01:41:54;;;;;;;13.75;9.15;;;;;;;-146.27;81.68;44374.34;5072387;28;20523;-73
2024/01/07 01:44:20;;;;;;;12.10;7.88;;;;;;;-146.27;81.15;44418.13;5070234;28;20119;-71
2024/01/07 01:46:46;;;;;;;15.18;8.85;;;;;;;-146.27;80.94;44434.03;5067442;28;20167;-72
2024/01/07 01:49:12;;;;;;;12.77;8.43;;;;;;;-146.27;80.65;44497.72;5064043;28;20039;-72
2024/01/07 01:51:37;;;;;;;14.27;8.13;;;;;;;-146.27;80.40;44505.66;5068459;28;20040;-71
2024/01/07 01:54:03;;;;;;;12.70;8.20;;;;;;;-146.27;80.55;44547.44;5070492;28;20392;-71
2024/01/07 01:56:29;;;;;;;13.45;8.27;;;;;;;-146.27;80.38;44513.63;5059447;28;20383;-71
2024/01/07 01:58:55;;;;;;;15.65;8.55;;;;;;;-146.27;81.24;44497.72;5073477;28;20643;-71
2024/01/07 02:01:21;;;;;;;13.88;8.13;;;;;;;-146.27;80.20;44535.50;5070007;28;20385;-70
2024/01/07 02:03:46;;;;;;;14.00;9.07;;;;;;;-146.27;80.62;44537.50;5069748;28;20103;-70
2024/01/07 02:06:12;;;;;;;14.98;8.57;;;;;;;-146.27;80.02;44557.41;5068611;28;20060;-71
2024/01/07 02:08:39;;;;;;;12.77;8.43;;;;;;;-146.27;79.54;44573.31;5059909;28;20035;-70
2024/01/07 02:11:18;;;;;;;11.68;8.15;;;;;;;-146.27;79.74;44595.22;5068115;28;20021;-71
2024/01/07 02:13:43;;;;;;;12.88;7.97;;;;;;;-146.27;79.48;44607.16;5067415;28;20433;-73
2024/01/07 02:16:09;;;;;;;12.07;7.90;;;;;;;-146.27;79.38;44613.13;5070885;28;20021;-71
2024/01/07 02:18:35;;;;;;;13.13;8.63;;;;;;;-146.27;80.09;44569.34;5064204;28;20562;-72
2024/01/07 02:21:00;;;;;;;13.45;8.35;;;;;;;-146.27;79.64;44595.22;5071013;28;20021;-72
2024/01/07 02:23:25;;;;;;;13.82;7.95;;;;;;;-146.27;80.32;44591.22;5074133;28;20024;-72
2024/01/07 02:25:51;;;;;;;12.65;8.20;;;;;;;-146.27;80.23;44585.25;5065061;28;20028;-71
2024/01/07 02:28:16;;;;;;;13.75;8.45;;;;;;;-146.27;79.66;44585.25;5069497;28;20476;-73
2024/01/07 02:30:42;;;;;;;13.40;8.13;;;;;;;-146.27;79.18;44650.94;5070882;28;20479;-72
2024/01/07 02:33:08;;;;;;;13.38;8.02;;;;;;;-146.27;80.37;44601.19;5067288;28;20021;-72
2024/01/07 02:35:33;;;;;;;12.13;8.07;;;;;;;-146.27;79.99;44553.41;5056194;28;20029;-72
2024/01/07 02:37:59;;;;;;;10.98;7.22;;;;;;;-146.27;79.87;44571.34;5068865;28;20032;-71
2024/01/07 02:40:24;;;;;;;13.25;9.02;;;;;;;-146.27;79.66;44609.13;5075108;28;20020;-71
2024/01/07 02:42:50;;;;;;;14.90;8.68;;;;;;;-146.27;80.17;44587.25;5067320;28;20116;-71
2024/01/07 02:45:15;;;;;;;11.90;8.13;;;;;;;-146.27;80.13;44589.25;5071247;28;20082;-71
2024/01/07 02:47:42;;;;;;;13.07;8.00;;;;;;;-146.27;80.59;44613.13;5073219;28;20086;-71
2024/01/07 02:50:07;;;;;;;12.35;8.02;;;;;;;-146.27;79.98;44561.38;5066259;28;20029;-71
2024/01/07 02:52:33;;;;;;;15.70;8.10;;;;;;;-146.27;80.08;44581.28;5066134;28;20050;-72
2024/01/07 02:54:59;;;;;;;12.15;7.85;;;;;;;-146.27;79.81;44613.13;5066437;28;20059;-72
2024/01/07 02:57:24;;;;;;;14.18;9.43;;;;;;;-146.27;80.70;44601.19;5064084;28;20024;-71
2024/01/07 02:59:50;;;;;;;12.18;7.47;;;;;;;-146.27;80.62;44557.41;5065202;28;20037;-71
2024/01/07 03:02:16;;;;;;;12.23;7.03;;;;;;;-146.27;80.99;44549.44;5064002;28;20043;-71
2024/01/07 03:04:43;;;;;;;11.32;6.82;;;;;;;-146.27;80.85;44565.38;5068383;28;20467;-71
2024/01/07 03:07:08;;;;;;;14.32;8.13;;;;;;;-146.27;80.48;44541.47;5066723;28;20037;-71
2024/01/07 03:09:34;;;;;;;12.80;7.25;;;;;;;-146.27;80.43;44559.41;5063278;28;20020;-72
2024/01/07 03:11:59;;;;;;;11.02;7.25;;;;;;;-146.27;80.29;44563.38;5066662;28;20024;-71
2024/01/07 03:14:25;;;;;;;11.80;7.63;;;;;;;-146.27;79.96;44553.41;5062986;28;20028;-71
2024/01/07 03:16:50;;;;;;;14.77;8.32;;;;;;;-146.27;80.10;44543.47;5065536;28;20433;-72
2024/01/07 03:19:15;;;;;;;12.75;7.70;;;;;;;-146.27;80.93;44511.63;5064993;28;20160;-71
2024/01/07 03:21:41;;;;;;;13.15;8.10;;;;;;;-146.27;81.21;44517.59;5063602;28;20094;-71
2024/01/07 03:24:06;;;;;;;14.63;8.30;;;;;;;-146.27;81.71;44513.63;5067554;28;20656;-71
2024/01/07 03:26:32;;;;;;;12.20;7.95;;;;;;;-146.27;81.36;44513.63;5069020;28;20039;-71
2024/01/07 03:29:02;;;;;;;13.32;7.95;;;;;;;-146.27;81.56;44485.78;5070788;28;20032;-72
2024/01/07 03:31:28;;;;;;;12.07;7.80;;;;;;;-146.27;81.26;44461.91;5069534;28;20032;-70
2024/01/07 03:33:54;;;;;;;16.20;9.02;;;;;;;-146.27;81.36;44457.91;5066688;28;20490;-72
2024/01/07 03:36:19;;;;;;;17.33;9.23;;;;;;;-146.27;81.15;44463.88;5070405;28;20028;-71
2024/01/07 03:38:45;;;;;;;12.65;8.68;;;;;;;-146.27;81.35;44442.00;5066687;28;20058;-72
2024/01/07 03:41:16;;;;;;;19.55;9.63;;;;;;;-146.27;81.52;44461.91;5069263;28;20742;-71
2024/01/07 03:43:42;;;;;;;15.00;9.30;;;;;;;-146.27;81.63;44451.94;5065947;28;20035;-71
2024/01/07 03:46:07;;;;;;;14.13;9.35;;;;;;;-146.27;82.23;44445.97;5070351;28;20472;-71
2024/01/07 03:48:32;;;;;;;16.38;10.18;;;;;;;-146.27;81.63;44426.06;5068156;28;20020;-72
2024/01/07 03:50:58;;;;;;;19.27;10.00;;;;;;;-146.27;81.80;44449.97;5069281;28;20090;-71
2024/01/07 03:53:23;;;;;;;16.02;10.07;;;;;;;-146.27;81.42;44461.91;5069543;28;20029;-71
2024/01/07 03:55:49;;;;;;;15.85;10.15;;;;;;;-146.27;81.54;44491.75;5069863;28;20666;-72
2024/01/07 03:58:14;;;;;;;16.25;9.93;;;;;;;-146.27;82.20;44521.59;5069920;28;20035;-71
2024/01/07 04:00:39;;;;;;;16.52;9.90;;;;;;;-146.27;81.86;44445.97;5068488;28;20040;-71
2024/01/07 04:03:05;;;;;;;15.18;10.07;;;;;;;-146.27;81.79;44459.91;5070105;28;20033;-71
2024/01/07 04:05:30;;;;;;;17.55;9.88;;;;;;;-146.27;81.44;44477.81;5082784;28;20028;-72
2024/01/07 04:07:56;;;;;;;17.38;10.82;;;;;;;-146.27;82.15;44501.69;5063063;28;20020;-71
2024/01/07 04:10:21;;;;;;;16.83;10.15;;;;;;;-146.27;81.89;44457.91;5073424;28;20448;-71
2024/01/07 04:12:47;;;;;;;17.70;10.82;;;;;;;-146.27;81.63;44471.84;5069395;28;20024;-71
2024/01/07 04:15:12;;;;;;;18.77;10.70;;;;;;;-146.27;81.41;44513.63;5068066;28;20032;-71
2024/01/07 04:17:38;;;;;;;20.52;10.38;;;;;;;-146.27;81.98;44473.84;5067698;28;20105;-71
2024/01/07 04:20:04;;;;;;;16.48;9.75;;;;;;;-146.27;81.54;44485.78;5068233;28;20370;-72
2024/01/07 04:22:29;;;;;;;17.60;10.27;;;;;;;-146.27;81.76;44449.97;5067437;28;20620;-71
2024/01/07 04:24:55;;;;;;;22.80;12.00;;;;;;;-146.27;81.75;44513.63;5071329;28;20035;-71
2024/01/07 04:27:20;;;;;;;19.05;11.00;;;;;;;-146.27;82.06;44438.00;5065422;28;20515;-72
2024/01/07 04:29:46;;;;;;;16.65;9.73;;;;;;;-146.27;81.70;44485.78;5071685;28;20028;-71
2024/01/07 04:32:11;;;;;;;17.60;10.25;;;;;;;-146.27;82.00;44465.88;5068845;28;20793;-71
2024/01/07 04:34:36;;;;;;;19.33;10.63;;;;;;;-146.27;81.38;44483.78;5062056;28;20714;-71
2024/01/07 04:37:02;;;;;;;19.17;10.68;;;;;;;-146.27;81.19;44461.91;5053341;28;20492;-71
2024/01/07 04:39:27;;;;;;;18.80;9.98;;;;;;;-146.27;81.38;44489.75;5063141;28;20613;-72
2024/01/07 04:41:53;;;;;;;17.33;10.50;;;;;;;-146.27;82.22;44416.13;5073560;28;20519;-72
2024/01/07 04:44:19;;;;;;;23.13;11.05;;;;;;;-146.27;81.94;44418.13;5064150;28;20531;-72
2024/01/07 04:46:44;;;;;;;18.38;11.25;;;;;;;-146.27;81.71;44426.06;5057325;28;20021;-72
2024/01/07 04:49:09;;;;;;;16.25;9.43;;;;;;;-146.27;81.74;44449.97;5063146;28;20032;-72
2024/01/07 04:51:36;;;;;;;17.25;10.65;;;;;;;-146.27;81.83;44493.72;5067435;28;20365;-72
2024/01/07 04:54:02;;;;;;;16.17;9.65;;;;;;;-146.27;81.32;44497.72;5065061;28;20033;-72
2024/01/07 04:56:27;;;;;;;14.38;9.00;;;;;;;-146.27;80.81;44545.47;5063896;28;20365;-71
2024/01/07 04:58:52;;;;;;;15.63;8.95;;;;;;;-146.27;81.15;44585.25;5067191;28;20032;-73
2024/01/07 05:01:18;;;;;;;14.10;9.27;;;;;;;-146.27;80.30;44585.25;5066583;28;20411;-72
2024/01/07 05:03:43;;;;;;;14.85;8.25;;;;;;;-146.27;80.64;44577.31;5067846;28;20428;-72
2024/01/07 05:06:09;;;;;;;13.40;8.77;;;;;;;-146.27;81.07;44567.34;5062677;28;20089;-71
2024/01/07 05:08:37;;;;;;;14.80;8.73;;;;;;;-146.27;80.53;44601.19;5070893;28;20078;-71
2024/01/07 05:11:02;;;;;;;16.20;8.80;;;;;;;-146.27;81.32;44579.28;5065015;28;20556;-71
2024/01/07 05:13:28;;;;;;;14.70;8.57;;;;;;;-146.27;80.79;44591.22;5061230;28;20016;-71
2024/01/07 05:15:53;;;;;;;12.52;8.20;;;;;;;-146.27;80.27;44601.19;5066004;28;20054;-72
2024/01/07 05:18:25;;;;;;;15.25;8.70;;;;;;;-146.27;80.42;44668.84;5073007;28;20031;-71
2024/01/07 05:20:51;;;;;;;17.42;9.32;;;;;;;-146.27;80.26;44652.91;5059371;28;20032;-71
2024/01/07 05:23:16;;;;;;;17.40;9.00;;;;;;;-146.27;80.21;44652.91;5060892;28;20025;-71
2024/01/07 05:25:43;;;;;;;15.82;9.38;;;;;;;-146.27;80.07;44672.81;5067691;28;20062;-72
2024/01/07 05:28:09;;;;;;;15.05;9.40;;;;;;;-146.27;80.08;44640.97;5065287;28;20499;-71
2024/01/07 05:30:34;;;;;;;15.52;8.40;;;;;;;-146.27;80.62;44662.88;5061597;28;20020;-71
2024/01/07 05:32:59;;;;;;;16.35;9.52;;;;;;;-146.27;80.81;44613.13;5065169;28;20076;-71
2024/01/07 05:35:25;;;;;;;16.00;9.85;;;;;;;-146.27;80.09;44676.78;5066707;28;20764;-73
2024/01/07 05:37:50;;;;;;;15.38;9.00;;;;;;;-146.27;80.41;44623.06;5082311;28;20078;-72
2024/01/07 05:40:15;;;;;;;17.88;9.70;;;;;;;-146.27;79.89;44684.75;5064664;28;20032;-72
2024/01/07 05:42:41;;;;;;;18.52;8.90;;;;;;;-146.27;80.10;44660.88;5068444;28;20029;-72
2024/01/07 05:45:07;;;;;;;16.45;9.45;;;;;;;-146.27;79.84;44617.09;5070101;28;20020;-72
2024/01/07 05:47:32;;;;;;;16.63;9.27;;;;;;;-146.27;80.17;44658.88;5068521;28;20089;-71
2024/01/07 05:49:57;;;;;;;14.38;9.75;;;;;;;-146.27;80.28;44654.91;5058976;28;20070;-71
2024/01/07 05:52:23;;;;;;;16.13;9.52;;;;;;;-146.27;80.18;44680.78;5066815;28;20028;-72
2024/01/07 05:54:48;;;;;;;16.50;9.88;;;;;;;-146.27;81.03;44605.16;5067851;28;20471;-72
2024/01/07 05:57:14;;;;;;;19.25;10.32;;;;;;;-146.27;80.89;44569.34;5065805;28;20499;-72
2024/01/07 05:59:39;;;;;;;18.48;10.88;;;;;;;-146.27;81.03;44583.28;5064480;28;20476;-72
2024/01/07 06:02:04;;;;;;;19.38;11.05;;;;;;;-146.27;80.64;44597.19;5067799;28;20060;-71
2024/01/07 06:04:30;;;;;;;18.48;10.50;;;;;;;-146.27;80.81;44613.13;5065169;28;20488;-73
2024/01/07 06:06:55;;;;;;;21.50;11.40;;;;;;;-146.27;80.70;44579.28;5068720;28;20032;-72
2024/01/07 06:09:20;;;;;;;19.15;11.68;;;;;;;-146.27;80.42;44585.25;5067744;28;20024;-72
2024/01/07 06:11:46;;;;;;;23.42;13.00;;;;;;;-146.27;81.33;44567.34;5069389;28;20408;-71
2024/01/07 06:14:12;;;;;;;18.67;11.13;;;;;;;-146.27;80.94;44585.25;5070999;28;20063;-72
2024/01/07 06:16:38;;;;;;;19.48;11.65;;;;;;;-146.27;80.55;44631.03;5071897;28;20028;-72
2024/01/07 06:19:03;;;;;;;23.48;11.82;;;;;;;-146.27;80.89;44573.31;5071840;28;20036;-72
2024/01/07 06:21:29;;;;;;;18.92;11.55;;;;;;;-146.27;81.48;44569.34;5074911;28;20020;-72
2024/01/07 06:23:54;;;;;;;23.75;12.63;;;;;;;-146.27;81.02;44547.44;5078477;28;20020;-72
2024/01/07 06:26:20;;;;;;;28.15;12.68;;;;;;;-146.27;81.72;44545.47;5072527;28;20025;-71
2024/01/07 06:28:45;;;;;;;19.52;12.20;;;;;;;-146.27;81.60;44537.50;5066178;28;20385;-72
2024/01/07 06:31:10;;;;;;;19.55;11.25;;;;;;;-146.27;82.29;44465.88;5065183;28;20605;-72
2024/01/07 06:33:36;;;;;;;21.80;12.18;;;;;;;-146.27;81.99;44541.47;5071656;28;20484;-71
2024/01/07 06:36:01;;;;;;;19.23;11.98;;;;;;;-146.27;82.24;44471.84;5068596;28;20206;-72
2024/01/07 06:38:27;;;;;;;20.88;11.88;;;;;;;-146.27;81.67;44499.69;5071828;28;20043;-72
2024/01/07 06:40:54;;;;;;;22.75;11.95;;;;;;;-146.27;81.60;44537.50;5065694;28;20036;-70
2024/01/07 06:43:19;;;;;;;17.95;11.10;;;;;;;-146.27;82.03;44487.75;5072394;28;20053;-70
2024/01/07 06:45:45;;;;;;;19.88;11.70;;;;;;;-146.27;81.75;44497.72;5071175;28;20024;-71
2024/01/07 06:48:10;;;;;;;25.73;11.60;;;;;;;-146.27;82.03;44527.56;5070470;28;20028;-72
2024/01/07 06:50:35;;;;;;;22.75;12.07;;;;;;;-146.27;81.59;44499.69;5068118;28;20020;-72
2024/01/07 06:53:01;;;;;;;24.10;12.20;;;;;;;-146.27;81.55;44489.75;5071290;28;20025;-71
2024/01/07 06:55:26;;;;;;;23.50;11.88;;;;;;;-146.27;81.39;44505.66;5071114;28;20043;-72
2024/01/07 06:57:51;;;;;;;19.05;11.80;;;;;;;-146.27;81.13;44521.59;5070035;28;20016;-73
2024/01/07 07:00:17;;;;;;;20.35;10.88;;;;;;;-146.27;80.81;44545.47;5071098;28;20048;-71
2024/01/07 07:02:43;;;;;;;20.23;11.73;;;;;;;-146.27;81.12;44557.41;5070045;28;20026;-72
2024/01/07 07:05:08;;;;;;;21.25;11.18;;;;;;;-146.27;81.18;44519.59;5071120;28;20043;-72
2024/01/07 07:07:34;;;;;;;20.17;11.68;;;;;;;-146.27;80.58;44567.34;5070640;28;20028;-72
2024/01/07 07:09:59;;;;;;;20.23;11.57;;;;;;;-146.27;80.90;44609.13;5070099;28;20055;-72
2024/01/07 07:12:25;;;;;;;18.10;10.68;;;;;;;-146.27;80.89;44547.44;5060523;28;20020;-72
2024/01/07 07:14:50;;;;;;;19.65;11.05;;;;;;;-146.27;80.73;44617.09;5061718;28;20028;-73
2024/01/07 07:17:16;;;;;;;21.02;11.25;;;;;;;-146.27;80.18;44581.28;5071450;28;20024;-72
2024/01/07 07:19:42;;;;;;;16.88;10.20;;;;;;;-146.27;80.59;44553.41;5068799;28;20690;-70
2024/01/07 07:22:07;;;;;;;17.13;10.40;;;;;;;-146.27;80.94;44587.25;5069455;28;20033;-72
2024/01/07 07:24:33;;;;;;;13.85;9.23;;;;;;;-146.27;81.08;44593.22;5068649;28;20028;-72
2024/01/07 07:26:58;;;;;;;18.63;10.77;;;;;;;-146.27;80.93;44597.19;5066404;28;20840;-72
2024/01/07 07:29:23;;;;;;;16.70;10.45;;;;;;;-146.27;80.17;44635.00;5068557;28;20531;-72
2024/01/07 07:31:49;;;;;;;16.50;10.10;;;;;;;-146.27;79.99;44676.78;5058685;28;20029;-71
2024/01/07 07:34:14;;;;;;;14.13;9.10;;;;;;;-146.27;80.20;44644.94;5068817;28;20086;-70
2024/01/07 07:36:41;;;;;;;17.95;9.23;;;;;;;-146.27;80.62;44660.88;5070598;28;20036;-71
2024/01/07 07:39:06;;;;;;;17.45;9.00;;;;;;;-146.27;80.21;44668.84;5065489;28;20020;-72
2024/01/07 07:41:32;;;;;;;16.25;9.60;;;;;;;-146.27;79.72;44684.75;5069776;28;20488;-71
2024/01/07 07:43:57;;;;;;;14.07;9.27;;;;;;;-146.27;79.55;44672.81;5069422;28;20029;-71
2024/01/07 07:46:23;;;;;;;16.63;9.32;;;;;;;-146.27;79.27;44686.75;5068634;28;20786;-73
2024/01/07 07:48:49;;;;;;;17.95;9.68;;;;;;;-146.27;79.40;44778.28;5070146;28;20029;-71
2024/01/07 07:51:14;;;;;;;15.40;9.20;;;;;;;-146.27;79.77;44756.38;5065036;28;20029;-71
2024/01/07 07:53:40;;;;;;;15.32;9.13;;;;;;;-146.27;79.32;44742.47;5063380;28;20028;-71
2024/01/07 07:56:06;;;;;;;13.15;8.70;;;;;;;-146.27;78.49;44792.22;5068527;28;20037;-71
2024/01/07 07:58:31;;;;;;;15.63;8.55;;;;;;;-146.27;78.30;44849.91;5064284;28;20132;-70
2024/01/07 08:00:57;;;;;;;15.65;8.57;;;;;;;-146.27;78.00;44800.16;5068445;28;20509;-71
2024/01/07 08:03:23;;;;;;;13.68;8.40;;;;;;;-146.27;78.70;44800.16;5072686;28;20054;-70
2024/01/07 08:05:49;;;;;;;12.43;8.13;;;;;;;-146.27;78.73;44780.25;5066757;28;20028;-71
2024/01/07 08:08:16;;;;;;;15.32;8.38;;;;;;;-146.27;78.90;44828.03;5077094;28;20522;-71
2024/01/07 08:10:42;;;;;;;17.17;8.80;;;;;;;-146.27;78.81;44839.97;5070555;28;20126;-72
2024/01/07 08:13:08;;;;;;;14.00;8.45;;;;;;;-146.27;78.76;44834.00;5072738;28;20165;-72
2024/01/07 08:15:34;;;;;;;14.75;8.73;;;;;;;-146.27;78.80;44869.81;5075214;28;20039;-72
2024/01/07 08:17:59;;;;;;;14.50;8.98;;;;;;;-146.27;79.00;44867.81;5077900;28;20024;-71
2024/01/07 08:20:25;;;;;;;15.93;8.95;;;;;;;-146.27;78.82;44867.81;5064447;28;20031;-71
2024/01/07 08:22:50;;;;;;;14.82;8.90;;;;;;;-146.27;78.27;44893.69;5062246;28;20016;-71
2024/01/07 08:25:15;;;;;;;15.90;8.25;;;;;;;-146.27;78.84;44897.66;5067440;28;20494;-71
2024/01/07 08:27:41;;;;;;;16.02;8.40;;;;;;;-146.27;79.23;44915.59;5070421;28;20037;-70
2024/01/07 08:30:07;;;;;;;14.18;7.97;;;;;;;-146.27;79.04;44947.41;5071101;28;20042;-73
2024/01/07 08:32:33;;;;;;;15.63;7.97;;;;;;;-146.27;79.53;44947.41;5059156;28;20039;-69
2024/01/07 08:34:58;;;;;;;14.30;8.05;;;;;;;-146.27;79.29;44927.53;5061415;28;20039;-73
2024/01/07 08:37:24;;;;;;;13.43;7.72;;;;;;;-146.27;78.98;44907.63;5067870;28;20028;-71
2024/01/07 08:39:49;;;;;;;12.02;7.50;;;;;;;-146.27;78.95;44959.38;5064413;28;20105;-72
2024/01/07 08:42:15;;;;;;;12.70;7.32;;;;;;;-146.27;78.49;44919.56;5065443;28;20055;-71
2024/01/07 08:44:42;;;;;;;13.65;7.43;;;;;;;-146.27;79.12;44951.41;5067373;28;20028;-72
2024/01/07 08:47:07;;;;;;;13.98;8.32;;;;;;;-146.27;78.90;44967.31;5066601;28;20111;-72
2024/01/07 08:49:33;;;;;;;14.32;8.35;;;;;;;-146.27;78.65;44979.25;5067580;28;20119;-71
2024/01/07 08:51:58;;;;;;;14.50;7.15;;;;;;;-146.27;78.82;44991.19;5066663;28;20059;-73
2024/01/07 08:54:24;;;;;;;15.30;7.88;;;;;;;-146.27;79.18;45001.16;5064723;28;20383;-72
2024/01/07 08:56:50;;;;;;;11.73;7.97;;;;;;;-146.27;79.17;45011.09;5070609;28;20025;-72
2024/01/07 08:59:16;;;;;;;13.45;8.93;;;;;;;-146.27;78.64;45080.75;5067600;28;20028;-71
2024/01/07 09:01:41;;;;;;;11.05;7.88;;;;;;;-146.27;77.92;45134.50;5066676;28;20094;-72
2024/01/07 09:04:06;;;;;;;13.15;7.50;;;;;;;-146.27;78.63;45196.19;5070791;28;20078;-71
2024/01/07 09:06:32;;;;;;;11.35;7.85;;;;;;;-146.27;78.26;45188.22;5067256;28;20043;-71
2024/01/07 09:08:57;;;;;;;12.48;7.60;;;;;;;-146.27;78.51;45226.03;5066317;28;20078;-72
2024/01/07 09:11:23;;;;;;;11.80;7.07;;;;;;;-146.27;77.72;45285.75;5070686;28;20477;-72
2024/01/07 09:13:50;;;;;;;13.02;7.85;;;;;;;-146.27;77.84;45363.34;5067811;28;20028;-70
2024/01/07 09:16:16;;;;;;;11.80;7.20;;;;;;;-146.27;77.31;45375.28;5066029;28;20037;-72
2024/01/07 09:18:43;;;;;;;17.65;8.27;;;;;;;-146.27;76.93;45440.97;5065231;28;20050;-71
2024/01/07 09:21:09;;;;;;;12.10;7.38;;;;;;;-146.27;76.46;45462.88;5069567;28;20024;-71
2024/01/07 09:23:36;;;;;;;9.07;6.70;;;;;;;-146.27;76.26;45476.78;5066189;28;20383;-71
2024/01/07 09:26:02;;;;;;;11.48;6.60;;;;;;;-146.27;77.01;45514.63;5068583;28;20101;-71
2024/01/07 09:28:27;;;;;;;9.68;6.10;;;;;;;-146.27;76.55;45500.69;5069139;28;20113;-71
2024/01/07 09:30:52;;;;;;;10.30;6.78;;;;;;;-146.27;76.46;45536.50;5069339;28;20029;-73
2024/01/07 09:33:19;;;;;;;14.98;6.88;;;;;;;-146.27;76.62;45520.59;5065070;28;20476;-71
2024/01/07 09:35:45;;;;;;;11.23;6.20;;;;;;;-146.27;76.58;45564.38;5063370;28;20033;-72
2024/01/07 09:38:10;;;;;;;10.30;6.70;;;;;;;-146.27;76.40;45488.75;5062017;28;20550;-72
2024/01/07 09:40:38;;;;;;;10.98;6.93;;;;;;;-146.27;76.50;45514.63;5054488;28;20127;-72
2024/01/07 09:43:09;;;;;;;12.07;7.10;;;;;;;-146.27;76.41;45540.50;5060186;28;20094;-72
2024/01/07 09:45:45;;;;;;;12.48;6.78;;;;;;;-146.27;75.79;45604.19;5077612;28;20024;-71
2024/01/07 09:48:11;;;;;;;9.57;6.32;;;;;;;-146.27;75.94;45588.25;5089720;28;20058;-73
2024/01/07 09:50:36;;;;;;;13.07;6.18;;;;;;;-146.27;75.67;45594.22;5072199;28;20040;-73
2024/01/07 09:53:02;;;;;;;10.25;6.72;;;;;;;-146.27;75.39;45628.06;5071981;28;21046;-73
2024/01/07 09:55:34;;;;;;;13.68;6.65;;;;;;;-146.27;75.50;45618.09;5070901;28;20024;-72
2024/01/07 09:57:59;;;;;;;9.45;6.57;;;;;;;-146.27;76.25;45647.97;5072191;28;20546;-73
2024/01/07 10:00:27;;;;;;;10.65;6.63;;;;;;;-146.27;75.62;45663.88;5070877;28;20036;-73
2024/01/07 10:02:53;;;;;;;10.27;6.30;;;;;;;-146.27;75.15;45699.72;5079679;28;20071;-73
2024/01/07 10:05:18;;;;;;;11.35;6.40;;;;;;;-146.27;75.21;45707.69;5078351;28;20048;-71
2024/01/07 10:07:44;;;;;;;11.40;6.13;;;;;;;-146.27;74.85;45715.63;5074882;28;20060;-72
2024/01/07 10:10:17;;;;;;;9.23;6.38;;;;;;;-146.27;75.35;45705.69;5075568;28;20046;-73
2024/01/07 10:12:46;;;;;;;9.57;6.53;;;;;;;-146.27;75.95;45771.38;5074394;28;20028;-72
2024/01/07 10:15:12;;;;;;;10.95;6.45;;;;;;;-146.27;75.84;45735.53;5080657;28;20033;-71
2024/01/07 10:17:39;;;;;;;11.55;6.50;;;;;;;-146.27;75.39;45751.47;5073225;28;20557;-72
2024/01/07 10:20:09;;;;;;;10.27;6.15;;;;;;;-146.27;74.93;45803.22;5072745;28;20028;-72
2024/01/07 10:22:36;;;;;;;10.13;6.07;;;;;;;-146.27;74.21;45781.31;5068139;28;20050;-72
2024/01/07 10:25:01;;;;;;;10.55;5.95;;;;;;;-146.27;74.58;45823.13;5064232;28;20028;-71
2024/01/07 10:27:27;;;;;;;8.85;5.53;;;;;;;-146.27;75.12;45773.34;5072856;28;20384;-73
2024/01/07 10:29:55;;;;;;;8.52;5.45;;;;;;;-146.27;75.00;45799.22;5072367;28;20696;-72
2024/01/07 10:32:20;;;;;;;11.27;5.47;;;;;;;-146.27;74.16;45847.00;5074131;28;20036;-72
2024/01/07 10:34:47;;;;;;;8.90;5.13;;;;;;;-146.27;74.00;45825.09;5070521;28;20388;-73
2024/01/07 10:37:12;;;;;;;6.63;4.63;;;;;;;-146.27;73.40;45888.81;5065899;28;20039;-72
2024/01/07 10:39:38;;;;;;;7.78;4.63;;;;;;;-146.27;72.66;45894.78;5072099;28;20013;-73
2024/01/07 10:42:04;;;;;;;8.80;4.45;;;;;;;-146.27;72.10;45886.81;5075082;28;20019;-73
2024/01/07 10:44:31;;;;;;;13.60;4.93;;;;;;;-146.27;71.83;45922.63;5083814;28;20063;-72
2024/01/07 10:46:57;;;;;;;6.72;4.22;;;;;;;-146.27;72.55;45930.59;5067793;28;20477;-74
2024/01/07 10:49:25;;;;;;;7.35;4.75;;;;;;;-146.27;73.00;45940.56;5070698;28;20548;-73
2024/01/07 10:52:06;;;;;;;8.82;4.82;;;;;;;-146.27;72.98;45934.59;5067118;28;20020;-72
2024/01/07 10:54:33;;;;;;;9.68;5.00;;;;;;;-146.27;72.90;45932.59;5071400;28;20028;-72
2024/01/07 10:57:15;;;;;;;8.45;4.68;;;;;;;-146.27;72.62;45864.91;5066482;28;20037;-72
2024/01/07 10:59:43;;;;;;;6.18;4.03;;;;;;;-146.27;72.66;45872.88;5071812;28;20032;-73
2024/01/07 11:02:11;;;;;;;9.20;4.00;;;;;;;-146.27;72.65;45890.78;5063719;28;20036;-73
2024/01/07 11:04:45;;;;;;;6.32;3.53;;;;;;;-146.27;73.26;45914.69;5069577;28;20394;-70